Time;durP1;ratioP1;P1;durP2;ratioP2;P2;SDS_P1;SDS_P2;PMS_P1;PMS_P2;Temp;Humidity;BMP_temperature;BMP_pressure;BME280_temperature;BME280_humidity;BME280_pressure;Samples;Min_cycle;Max_cycle;Signal;HPM_P1;HPM_P2
2021/03/16 07:35:12;;;;;;;12.35;4.70;;;;;;;;;;6045104;22;1446461;-77
2021/03/16 07:37:39;;;;;;;19.83;4.72;;;;;;;;;;5039416;28;20212;-78
2021/03/16 07:40:06;;;;;;;23.10;6.63;;;;;;;;;;5025108;28;20228;-78
2021/03/16 07:42:32;;;;;;;16.80;6.22;;;;;;;;;;5045203;28;20178;-79
2021/03/16 07:44:58;;;;;;;17.55;6.93;;;;;;;;;;5027416;28;20289;-77
2021/03/16 07:47:34;;;;;;;10.65;6.50;;;;;;;;;;5028668;28;20194;-80
2021/03/16 07:50:01;;;;;;;21.30;8.25;;;;;;;;;;5029612;28;20563;-78
2021/03/16 07:52:27;;;;;;;16.90;8.45;;;;;;;;;;5030093;28;20264;-77
2021/03/16 07:54:54;;;;;;;20.20;7.15;;;;;;;;;;5029314;28;20208;-78
2021/03/16 07:57:28;;;;;;;16.27;8.02;;;;;;;;;;5028671;28;20545;-77
2021/03/16 07:59:57;;;;;;;27.23;8.65;;;;;;;;;;5029881;28;20188;-78
2021/03/16 08:02:27;;;;;;;18.42;8.77;;;;;;;;;;5029701;28;20178;-77
2021/03/16 08:04:53;;;;;;;24.48;9.43;;;;;;;;;;5044613;28;20189;-77
2021/03/16 08:07:21;;;;;;;17.23;8.68;;;;;;;;;;5029296;28;20541;-78
2021/03/16 08:09:48;;;;;;;34.30;9.82;;;;;;;;;;5044856;28;20187;-78
2021/03/16 08:12:28;;;;;;;19.50;10.10;;;;;;;;;;5028316;28;20202;-81
2021/03/16 08:14:54;;;;;;;20.85;8.57;;;;;;;;;;5029091;28;20518;-76
2021/03/16 08:17:30;;;;;;;18.15;8.55;;;;;;;;;;5044628;28;20182;-78
2021/03/16 08:19:56;;;;;;;20.23;9.00;;;;;;;;;;5044862;28;20205;-77
2021/03/16 08:22:24;;;;;;;20.40;8.52;;;;;;;;;;5029392;28;20265;-78
2021/03/16 08:24:59;;;;;;;24.88;8.63;;;;;;;;;;5029006;28;20485;-78
2021/03/16 08:27:26;;;;;;;24.88;9.40;;;;;;;;;;5029250;28;20228;-78
2021/03/16 08:29:52;;;;;;;21.02;9.35;;;;;;;;;;5044558;28;20270;-77
2021/03/16 08:32:20;;;;;;;20.90;8.85;;;;;;;;;;5044426;28;20180;-77
2021/03/16 08:34:46;;;;;;;17.13;8.57;;;;;;;;;;5028725;28;20178;-77
2021/03/16 08:37:21;;;;;;;27.58;9.30;;;;;;;;;;5045992;28;20674;-78
2021/03/16 08:39:48;;;;;;;27.15;9.70;;;;;;;;;;5017048;28;20183;-78
2021/03/16 08:42:17;;;;;;;11.45;6.25;;;;;;;;;;5014448;28;20180;-76
2021/03/16 08:44:43;;;;;;;16.13;7.45;;;;;;;;;;5014179;28;20185;-77
2021/03/16 08:47:12;;;;;;;11.38;4.95;;;;;;;;;;5015405;28;20206;-77
2021/03/16 08:49:39;;;;;;;17.50;5.95;;;;;;;;;;5014357;28;20203;-77
2021/03/16 08:52:05;;;;;;;16.10;6.18;;;;;;;;;;5015467;28;20249;-77
2021/03/16 08:54:31;;;;;;;11.70;5.60;;;;;;;;;;4997883;28;20187;-78
2021/03/16 08:56:58;;;;;;;11.25;5.30;;;;;;;;;;5015448;28;20667;-77
2021/03/16 08:59:24;;;;;;;12.27;5.40;;;;;;;;;;5015615;28;20190;-77
2021/03/16 09:01:51;;;;;;;18.05;5.68;;;;;;;;;;5015362;28;20182;-79
2021/03/16 09:04:18;;;;;;;9.32;4.25;;;;;;;;;;5014195;28;20192;-78
2021/03/16 09:06:44;;;;;;;13.05;5.15;;;;;;;;;;5014851;28;20206;-77
2021/03/16 09:09:12;;;;;;;14.10;4.72;;;;;;;;;;5014181;28;20218;-78
2021/03/16 09:11:43;;;;;;;10.02;3.88;;;;;;;;;;5014049;28;20241;-77
2021/03/16 09:14:17;;;;;;;4.70;2.70;;;;;;;;;;5006044;28;20658;-78
2021/03/16 09:16:44;;;;;;;14.65;4.97;;;;;;;;;;4995238;28;20597;-78
2021/03/16 09:19:11;;;;;;;13.20;4.07;;;;;;;;;;4995463;28;20183;-78
2021/03/16 09:21:37;;;;;;;9.95;3.88;;;;;;;;;;4995551;28;20180;-78
2021/03/16 09:24:05;;;;;;;10.52;3.17;;;;;;;;;;4995399;28;20180;-77
2021/03/16 09:26:31;;;;;;;9.77;3.20;;;;;;;;;;4994975;28;20334;-78
2021/03/16 09:28:59;;;;;;;9.63;3.47;;;;;;;;;;4994320;28;20175;-77
2021/03/16 09:31:26;;;;;;;9.57;3.90;;;;;;;;;;4995300;28;20178;-77
2021/03/16 09:33:52;;;;;;;6.43;3.67;;;;;;;;;;4994069;28;20286;-77
2021/03/16 09:36:28;;;;;;;13.90;4.00;;;;;;;;;;4985093;28;20685;-79
2021/03/16 09:38:55;;;;;;;9.55;2.70;;;;;;;;;;4975950;28;20174;-78
2021/03/16 09:41:21;;;;;;;11.82;3.88;;;;;;;;;;4975703;28;20188;-77
2021/03/16 09:43:47;;;;;;;8.48;3.25;;;;;;;;;;4975601;28;20188;-78
2021/03/16 09:46:14;;;;;;;10.23;3.38;;;;;;;;;;4957997;28;20259;-79
2021/03/16 09:48:41;;;;;;;8.50;3.72;;;;;;;;;;4958160;28;20231;-77
2021/03/16 09:51:12;;;;;;;7.80;3.10;;;;;;;;;;4957197;28;20206;-78
2021/03/16 09:53:40;;;;;;;16.00;3.25;;;;;;;;;;4975638;28;20176;-78
2021/03/16 09:56:07;;;;;;;6.72;3.25;;;;;;;;;;4958206;28;20222;-78
2021/03/16 09:58:33;;;;;;;9.05;3.50;;;;;;;;;;4957817;28;20182;-78
2021/03/16 10:01:02;;;;;;;13.10;4.90;;;;;;;;;;4958149;28;20180;-77
2021/03/16 10:03:28;;;;;;;17.15;4.75;;;;;;;;;;4958052;28;20184;-77
2021/03/16 10:06:04;;;;;;;8.68;3.20;;;;;;;;;;4974761;28;20208;-77
2021/03/16 10:08:30;;;;;;;11.52;4.28;;;;;;;;;;4974840;28;20583;-77
2021/03/16 10:10:57;;;;;;;7.38;3.28;;;;;;;;;;4975103;28;20522;-77
2021/03/16 10:13:33;;;;;;;9.07;3.83;;;;;;;;;;4957643;28;20267;-77
2021/03/16 10:16:07;;;;;;;9.38;4.10;;;;;;;;;;4957328;28;20239;-77
2021/03/16 10:18:36;;;;;;;11.40;5.30;;;;;;;;;;4975213;28;20180;-77
2021/03/16 10:21:02;;;;;;;10.73;4.28;;;;;;;;;;4975288;28;20180;-77
2021/03/16 10:23:31;;;;;;;18.50;5.83;;;;;;;;;;4974817;28;20179;-76
2021/03/16 10:26:04;;;;;;;14.25;5.80;;;;;;;;;;4974490;28;20439;-76
2021/03/16 10:28:38;;;;;;;9.93;5.55;;;;;;;;;;4975025;28;20187;-77
2021/03/16 10:31:11;;;;;;;6.30;3.13;;;;;;;;;;4981613;28;20665;-78
2021/03/16 10:33:37;;;;;;;7.30;4.13;;;;;;;;;;4994090;28;20202;-77
2021/03/16 10:36:03;;;;;;;7.72;3.63;;;;;;;;;;4988721;28;20208;-77
2021/03/16 10:38:29;;;;;;;8.73;4.30;;;;;;;;;;4973272;28;20180;-76
2021/03/16 10:40:55;;;;;;;7.07;3.55;;;;;;;;;;4974445;28;20551;-76
2021/03/16 10:43:21;;;;;;;9.30;3.90;;;;;;;;;;4974511;28;20524;-76
2021/03/16 10:45:47;;;;;;;5.97;2.55;;;;;;;;;;4969869;28;20291;-76
2021/03/16 10:48:13;;;;;;;11.83;4.10;;;;;;;;;;4960738;28;20209;-77
2021/03/16 10:50:39;;;;;;;5.20;3.28;;;;;;;;;;4963758;28;20432;-78
2021/03/16 10:53:05;;;;;;;3.80;2.77;;;;;;;;;;4962919;28;20227;-78
2021/03/16 10:55:31;;;;;;;5.47;2.38;;;;;;;;;;4954932;29;21072;-77
2021/03/16 10:57:57;;;;;;;7.00;2.40;;;;;;;;;;4954729;29;20185;-78
2021/03/16 11:00:23;;;;;;;8.10;2.73;;;;;;;;;;4937771;29;20817;-78
2021/03/16 11:02:49;;;;;;;5.10;3.03;;;;;;;;;;4954505;28;20421;-79
2021/03/16 11:05:15;;;;;;;6.20;3.15;;;;;;;;;;4954467;29;20205;-78
2021/03/16 11:07:41;;;;;;;8.93;3.50;;;;;;;;;;4954740;29;20578;-78
2021/03/16 11:10:07;;;;;;;7.35;3.30;;;;;;;;;;4953792;29;20236;-77
2021/03/16 11:12:33;;;;;;;6.63;3.33;;;;;;;;;;4953798;29;20232;-78
2021/03/16 11:14:59;;;;;;;8.80;4.00;;;;;;;;;;4953132;29;20204;-80
2021/03/16 11:17:25;;;;;;;8.77;5.07;;;;;;;;;;4954711;29;20209;-79
2021/03/16 11:19:52;;;;;;;11.93;4.00;;;;;;;;;;4954720;29;20177;-78
2021/03/16 11:22:18;;;;;;;7.85;3.65;;;;;;;;;;4954713;29;20416;-80
2021/03/16 11:24:44;;;;;;;8.05;3.35;;;;;;;;;;4954152;29;20188;-76
2021/03/16 11:27:10;;;;;;;6.40;3.10;;;;;;;;;;4954451;29;20208;-76
2021/03/16 11:29:36;;;;;;;9.55;3.03;;;;;;;;;;4954918;29;20413;-78
2021/03/16 11:32:02;;;;;;;8.75;2.75;;;;;;;;;;4954665;29;20177;-78
2021/03/16 11:34:30;;;;;;;5.63;1.85;;;;;;;;;;4954605;29;20275;-77
2021/03/16 11:36:56;;;;;;;9.82;2.95;;;;;;;;;;4954412;28;20212;-77
2021/03/16 11:39:22;;;;;;;8.93;3.00;;;;;;;;;;4953250;29;20184;-76
2021/03/16 11:41:48;;;;;;;10.60;3.50;;;;;;;;;;4937121;29;20454;-77
2021/03/16 11:44:14;;;;;;;8.97;2.97;;;;;;;;;;4954593;29;20202;-79
2021/03/16 11:46:40;;;;;;;7.35;2.80;;;;;;;;;;4954179;29;20487;-78
2021/03/16 11:49:06;;;;;;;7.47;3.37;;;;;;;;;;4954396;29;20185;-78
2021/03/16 11:51:32;;;;;;;17.50;3.72;;;;;;;;;;4954383;29;20447;-79
2021/03/16 11:53:58;;;;;;;13.02;3.47;;;;;;;;;;4954601;29;20212;-81
2021/03/16 11:56:23;;;;;;;7.73;2.90;;;;;;;;;;4952747;29;20287;-78
2021/03/16 11:58:49;;;;;;;7.87;3.80;;;;;;;;;;4953090;29;20428;-79
2021/03/16 12:01:15;;;;;;;9.27;2.47;;;;;;;;;;4954425;29;20416;-79
2021/03/16 12:03:41;;;;;;;7.60;2.30;;;;;;;;;;4954318;29;20189;-77
2021/03/16 12:06:08;;;;;;;9.10;1.90;;;;;;;;;;4952864;29;20496;-78
2021/03/16 12:08:34;;;;;;;4.25;2.22;;;;;;;;;;4954196;29;20682;-75
2021/03/16 12:11:00;;;;;;;10.73;2.97;;;;;;;;;;4954428;29;20181;-78
2021/03/16 12:13:26;;;;;;;11.17;3.43;;;;;;;;;;4954590;28;20646;-77
2021/03/16 12:15:52;;;;;;;8.37;3.47;;;;;;;;;;4957459;29;20429;-78
2021/03/16 12:18:18;;;;;;;10.90;3.37;;;;;;;;;;4957693;29;20777;-77
2021/03/16 12:20:44;;;;;;;7.43;3.70;;;;;;;;;;4957932;29;20559;-76
2021/03/16 12:23:10;;;;;;;11.60;3.50;;;;;;;;;;4957835;29;20491;-79
2021/03/16 12:25:36;;;;;;;8.82;4.20;;;;;;;;;;4957151;29;20201;-78
2021/03/16 12:28:02;;;;;;;9.90;4.30;;;;;;;;;;4956438;29;20570;-78
2021/03/16 12:30:28;;;;;;;10.68;4.70;;;;;;;;;;4957489;28;20417;-77
2021/03/16 12:32:54;;;;;;;12.75;5.45;;;;;;;;;;4957339;29;20263;-77
2021/03/16 12:35:20;;;;;;;13.32;5.07;;;;;;;;;;4955690;29;20208;-76
2021/03/16 12:37:46;;;;;;;6.30;3.90;;;;;;;;;;4957438;29;20215;-78
2021/03/16 12:40:13;;;;;;;9.48;4.50;;;;;;;;;;4957654;29;20188;-79
2021/03/16 12:42:39;;;;;;;7.93;4.68;;;;;;;;;;4957316;29;20212;-80
2021/03/16 12:45:06;;;;;;;10.02;5.15;;;;;;;;;;4957050;29;20215;-81
2021/03/16 12:47:32;;;;;;;4.43;2.92;;;;;;;;;;4957264;29;20551;-79
2021/03/16 12:49:58;;;;;;;11.10;4.80;;;;;;;;;;4956091;29;20188;-82
2021/03/16 12:52:24;;;;;;;9.50;4.25;;;;;;;;;;4957362;29;20645;-78
2021/03/16 12:54:50;;;;;;;8.90;4.55;;;;;;;;;;4955674;29;20223;-77
2021/03/16 12:57:19;;;;;;;5.70;3.90;;;;;;;;;;4957324;29;20188;-81
2021/03/16 12:59:45;;;;;;;10.45;5.65;;;;;;;;;;4957201;29;20173;-79
2021/03/16 13:02:11;;;;;;;12.70;4.88;;;;;;;;;;4957039;29;20184;-77
2021/03/16 13:04:38;;;;;;;10.60;5.18;;;;;;;;;;4956643;29;20181;-79
2021/03/16 13:07:04;;;;;;;10.10;4.90;;;;;;;;;;4956942;29;20204;-81
2021/03/16 13:09:30;;;;;;;5.63;3.35;;;;;;;;;;4957110;29;20255;-80
2021/03/16 13:11:56;;;;;;;3.27;2.33;;;;;;;;;;4957104;29;20296;-80
2021/03/16 13:14:22;;;;;;;5.60;2.45;;;;;;;;;;4955757;29;20412;-81
2021/03/16 13:16:49;;;;;;;5.80;2.88;;;;;;;;;;4956720;29;20283;-80
2021/03/16 13:19:15;;;;;;;4.40;2.00;;;;;;;;;;4956693;29;20189;-79
2021/03/16 13:21:43;;;;;;;3.15;2.15;;;;;;;;;;4958400;28;20196;-77
2021/03/16 13:24:09;;;;;;;7.03;1.80;;;;;;;;;;4976391;28;20180;-80
2021/03/16 13:26:35;;;;;;;4.65;2.20;;;;;;;;;;4974531;28;20291;-78
2021/03/16 13:29:02;;;;;;;4.18;1.63;;;;;;;;;;4975875;28;20223;-77
2021/03/16 13:31:28;;;;;;;2.13;1.33;;;;;;;;;;4975416;28;20534;-79
2021/03/16 13:33:54;;;;;;;2.92;1.83;;;;;;;;;;4975540;28;20176;-77
2021/03/16 13:36:20;;;;;;;3.20;2.35;;;;;;;;;;4973694;28;20267;-78
2021/03/16 13:38:46;;;;;;;6.47;2.75;;;;;;;;;;4975762;28;20176;-79
2021/03/16 13:41:12;;;;;;;13.52;2.85;;;;;;;;;;4974313;28;20199;-78
2021/03/16 13:43:38;;;;;;;6.65;2.50;;;;;;;;;;4972693;28;20185;-78
2021/03/16 13:46:04;;;;;;;4.63;2.72;;;;;;;;;;4973832;28;20201;-78
2021/03/16 13:48:30;;;;;;;7.10;3.25;;;;;;;;;;4973955;28;20632;-78
2021/03/16 13:50:56;;;;;;;5.07;2.80;;;;;;;;;;4974117;28;20268;-79
2021/03/16 13:53:22;;;;;;;7.03;3.15;;;;;;;;;;4974992;28;20420;-80
2021/03/16 13:55:48;;;;;;;10.85;3.10;;;;;;;;;;4974980;28;20200;-78
2021/03/16 13:58:14;;;;;;;4.70;3.00;;;;;;;;;;4975266;28;20193;-77
2021/03/16 14:00:40;;;;;;;5.07;2.57;;;;;;;;;;4975346;28;20892;-78
2021/03/16 14:03:06;;;;;;;3.88;2.65;;;;;;;;;;4975146;28;20463;-78
2021/03/16 14:05:32;;;;;;;4.22;1.98;;;;;;;;;;4973579;28;20609;-79
2021/03/16 14:07:58;;;;;;;3.20;2.10;;;;;;;;;;4973896;28;20376;-79
2021/03/16 14:10:24;;;;;;;3.83;1.80;;;;;;;;;;4973835;28;20236;-78
2021/03/16 14:12:50;;;;;;;2.20;1.92;;;;;;;;;;4973788;28;20208;-78
2021/03/16 14:15:17;;;;;;;5.47;1.75;;;;;;;;;;4973465;28;20204;-77
2021/03/16 14:17:43;;;;;;;2.00;1.80;;;;;;;;;;4975229;28;20184;-77
2021/03/16 14:20:10;;;;;;;5.32;2.30;;;;;;;;;;4974898;28;20260;-77
2021/03/16 14:22:36;;;;;;;1.90;1.80;;;;;;;;;;4973587;28;20281;-76
2021/03/16 14:25:04;;;;;;;3.17;1.80;;;;;;;;;;4973367;28;20231;-80
2021/03/16 14:27:30;;;;;;;4.15;2.13;;;;;;;;;;4974749;28;20251;-77
2021/03/16 14:29:56;;;;;;;3.77;1.93;;;;;;;;;;4973523;28;20617;-78
2021/03/16 14:32:22;;;;;;;6.05;1.83;;;;;;;;;;4973302;28;20422;-78
2021/03/16 14:34:48;;;;;;;2.05;1.80;;;;;;;;;;4972876;28;20270;-77
2021/03/16 14:37:14;;;;;;;2.37;2.07;;;;;;;;;;4973832;28;20234;-79
2021/03/16 14:39:40;;;;;;;5.25;2.58;;;;;;;;;;4974218;28;20845;-78
2021/03/16 14:42:07;;;;;;;5.70;2.40;;;;;;;;;;4973982;28;20254;-79
2021/03/16 14:44:33;;;;;;;2.60;2.08;;;;;;;;;;4973680;28;20427;-77
2021/03/16 14:46:59;;;;;;;3.03;2.47;;;;;;;;;;4973985;28;20208;-78
2021/03/16 14:49:25;;;;;;;3.42;2.15;;;;;;;;;;4974073;28;20169;-77
2021/03/16 14:51:51;;;;;;;3.53;2.20;;;;;;;;;;4973047;28;20212;-77
2021/03/16 14:54:17;;;;;;;1.95;1.55;;;;;;;;;;4973862;28;20209;-78
2021/03/16 14:56:43;;;;;;;2.03;1.73;;;;;;;;;;4972254;28;20204;-77
2021/03/16 14:59:09;;;;;;;1.75;1.45;;;;;;;;;;4974199;28;20198;-78
2021/03/16 15:01:35;;;;;;;3.23;1.97;;;;;;;;;;4973017;28;20267;-79
2021/03/16 15:04:01;;;;;;;1.70;1.50;;;;;;;;;;4972746;28;20423;-79
2021/03/16 15:06:27;;;;;;;7.28;2.22;;;;;;;;;;4973492;28;20485;-77
2021/03/16 15:08:53;;;;;;;2.78;1.42;;;;;;;;;;4972513;28;20275;-76
2021/03/16 15:11:19;;;;;;;1.88;1.75;;;;;;;;;;4973928;28;20266;-78
2021/03/16 15:13:45;;;;;;;2.40;2.20;;;;;;;;;;4973211;28;20180;-78
2021/03/16 15:16:11;;;;;;;1.57;1.40;;;;;;;;;;4973560;28;20431;-78
2021/03/16 15:18:37;;;;;;;3.10;2.30;;;;;;;;;;4973951;28;20419;-78
2021/03/16 15:21:04;;;;;;;2.03;1.52;;;;;;;;;;4972918;28;20233;-77
2021/03/16 15:23:30;;;;;;;2.45;1.80;;;;;;;;;;4973503;28;20235;-77
2021/03/16 15:25:57;;;;;;;3.08;1.95;;;;;;;;;;4971950;28;20203;-79
2021/03/16 15:28:23;;;;;;;2.15;1.95;;;;;;;;;;4969519;28;20208;-77
2021/03/16 15:30:49;;;;;;;3.20;2.83;;;;;;;;;;4973529;28;20625;-79
2021/03/16 15:33:15;;;;;;;1.83;1.63;;;;;;;;;;4973203;28;20176;-78
2021/03/16 15:35:41;;;;;;;3.42;2.38;;;;;;;;;;4970512;28;20269;-78
2021/03/16 15:38:08;;;;;;;2.58;2.20;;;;;;;;;;4973878;28;20195;-77
2021/03/16 15:40:34;;;;;;;2.40;1.80;;;;;;;;;;4973437;28;20650;-78
2021/03/16 15:43:00;;;;;;;2.58;2.33;;;;;;;;;;4973747;28;20188;-78
2021/03/16 15:45:27;;;;;;;4.10;2.05;;;;;;;;;;4972151;28;20269;-78
2021/03/16 15:47:53;;;;;;;3.38;2.47;;;;;;;;;;4973515;28;20283;-77
2021/03/16 15:50:20;;;;;;;2.95;2.22;;;;;;;;;;4977391;28;20652;-76
2021/03/16 15:52:46;;;;;;;4.25;2.40;;;;;;;;;;4976465;28;20184;-79
2021/03/16 15:55:13;;;;;;;2.53;2.33;;;;;;;;;;4977073;28;20570;-78
2021/03/16 15:57:39;;;;;;;3.20;2.90;;;;;;;;;;4977573;28;20493;-78
2021/03/16 16:00:06;;;;;;;3.38;2.30;;;;;;;;;;4977507;28;20184;-77
2021/03/16 16:02:32;;;;;;;4.32;2.40;;;;;;;;;;4976485;28;20178;-77
2021/03/16 16:04:58;;;;;;;2.97;2.67;;;;;;;;;;4975667;28;20210;-78
2021/03/16 16:07:24;;;;;;;3.27;2.60;;;;;;;;;;4976029;28;20898;-77
2021/03/16 16:09:50;;;;;;;2.90;2.47;;;;;;;;;;4971415;28;20651;-81
2021/03/16 16:12:16;;;;;;;3.05;2.58;;;;;;;;;;4964888;28;20196;-80
2021/03/16 16:14:42;;;;;;;5.50;3.15;;;;;;;;;;4970588;28;20254;-80
2021/03/16 16:17:08;;;;;;;4.13;3.78;;;;;;;;;;4955760;29;20283;-79
2021/03/16 16:19:34;;;;;;;3.95;3.65;;;;;;;;;;4971078;28;20673;-81
2021/03/16 16:22:00;;;;;;;3.87;3.47;;;;;;;;;;4971243;28;20209;-77
2021/03/16 16:24:27;;;;;;;3.95;3.13;;;;;;;;;;4955253;29;20462;-76
2021/03/16 16:26:53;;;;;;;4.15;3.75;;;;;;;;;;4955714;28;20205;-77
2021/03/16 16:29:19;;;;;;;4.05;3.10;;;;;;;;;;4955968;29;20235;-79
2021/03/16 16:31:46;;;;;;;4.32;3.40;;;;;;;;;;4955616;29;20215;-77
2021/03/16 16:34:12;;;;;;;5.00;3.25;;;;;;;;;;4956094;29;20191;-77
2021/03/16 16:36:42;;;;;;;4.45;4.00;;;;;;;;;;4956693;28;20251;-78
2021/03/16 16:39:11;;;;;;;3.45;3.03;;;;;;;;;;4971354;28;20539;-78
2021/03/16 16:41:37;;;;;;;2.67;2.13;;;;;;;;;;4957272;29;20186;-77
2021/03/16 16:44:03;;;;;;;5.40;3.03;;;;;;;;;;4972126;28;20181;-79
2021/03/16 16:46:31;;;;;;;3.55;3.25;;;;;;;;;;4970747;28;20204;-78
2021/03/16 16:48:57;;;;;;;3.17;2.72;;;;;;;;;;4957143;29;20231;-78
2021/03/16 16:51:23;;;;;;;2.30;2.10;;;;;;;;;;4956686;29;20207;-76
2021/03/16 16:53:50;;;;;;;3.57;3.27;;;;;;;;;;4957218;29;20214;-79
2021/03/16 16:56:16;;;;;;;2.50;2.30;;;;;;;;;;4956903;28;20435;-76
2021/03/16 16:58:42;;;;;;;4.35;3.97;;;;;;;;;;4972345;28;20183;-79
2021/03/16 17:01:08;;;;;;;3.27;2.63;;;;;;;;;;4971732;28;20185;-78
2021/03/16 17:03:34;;;;;;;2.63;2.42;;;;;;;;;;4956667;29;20451;-78
2021/03/16 17:06:00;;;;;;;3.00;2.70;;;;;;;;;;4955237;28;20200;-80
2021/03/16 17:08:26;;;;;;;4.35;3.60;;;;;;;;;;4953924;29;20236;-79
2021/03/16 17:10:52;;;;;;;2.58;2.38;;;;;;;;;;4955335;29;20190;-79
2021/03/16 17:13:18;;;;;;;3.35;3.05;;;;;;;;;;4955546;29;20275;-80
2021/03/16 17:15:47;;;;;;;3.65;2.92;;;;;;;;;;4953866;28;20814;-80
2021/03/16 17:18:13;;;;;;;3.38;3.08;;;;;;;;;;4965726;28;20627;-79
2021/03/16 17:20:39;;;;;;;3.70;3.40;;;;;;;;;;4970686;28;20311;-80
2021/03/16 17:23:05;;;;;;;4.57;3.90;;;;;;;;;;4975917;28;20663;-81
2021/03/16 17:25:31;;;;;;;4.65;3.70;;;;;;;;;;4972530;28;20625;-79
2021/03/16 17:27:59;;;;;;;3.67;3.28;;;;;;;;;;4974562;28;20200;-79
2021/03/16 17:30:26;;;;;;;5.65;4.03;;;;;;;;;;4975855;28;20195;-80
2021/03/16 17:32:52;;;;;;;3.13;2.83;;;;;;;;;;4961909;28;20188;-81
2021/03/16 17:35:18;;;;;;;3.50;3.20;;;;;;;;;;4956019;28;20608;-79
2021/03/16 17:37:44;;;;;;;4.55;4.15;;;;;;;;;;4954812;28;20232;-80
2021/03/16 17:40:10;;;;;;;4.00;3.70;;;;;;;;;;4954994;28;20527;-80
2021/03/16 17:42:36;;;;;;;3.80;3.50;;;;;;;;;;4956594;28;20180;-81
2021/03/16 17:45:03;;;;;;;5.97;4.70;;;;;;;;;;4955866;28;20569;-80
2021/03/16 17:47:29;;;;;;;6.38;4.05;;;;;;;;;;4956175;28;20284;-81
2021/03/16 17:49:55;;;;;;;5.05;3.92;;;;;;;;;;4956368;28;20205;-80
2021/03/16 17:52:21;;;;;;;5.88;3.90;;;;;;;;;;4955154;28;20206;-78
2021/03/16 17:54:49;;;;;;;5.30;4.57;;;;;;;;;;4956079;28;20260;-79
2021/03/16 17:57:15;;;;;;;4.50;3.90;;;;;;;;;;4956485;28;20212;-79
2021/03/16 17:59:41;;;;;;;5.50;5.00;;;;;;;;;;4956731;28;20538;-78
2021/03/16 18:02:08;;;;;;;5.50;5.00;;;;;;;;;;4956205;28;20423;-79
2021/03/16 18:04:34;;;;;;;6.18;4.90;;;;;;;;;;4956085;28;20195;-78
2021/03/16 18:07:00;;;;;;;5.63;5.03;;;;;;;;;;4954955;29;20292;-79
2021/03/16 18:09:26;;;;;;;5.32;4.68;;;;;;;;;;4956399;28;20599;-79
2021/03/16 18:11:52;;;;;;;5.63;5.05;;;;;;;;;;4955126;28;20180;-80
2021/03/16 18:14:18;;;;;;;6.20;5.03;;;;;;;;;;4955875;28;20661;-79
2021/03/16 18:16:44;;;;;;;7.68;5.22;;;;;;;;;;4964944;28;20447;-80
2021/03/16 18:19:10;;;;;;;6.22;5.43;;;;;;;;;;4974979;28;20544;-79
2021/03/16 18:21:37;;;;;;;6.22;5.63;;;;;;;;;;4974889;28;20180;-79
2021/03/16 18:24:03;;;;;;;7.38;6.00;;;;;;;;;;4974812;28;20183;-80
2021/03/16 18:26:29;;;;;;;8.57;5.07;;;;;;;;;;4974735;28;20553;-79
2021/03/16 18:28:56;;;;;;;7.05;6.35;;;;;;;;;;4974819;28;20569;-79
2021/03/16 18:31:22;;;;;;;8.45;6.45;;;;;;;;;;4974977;28;20177;-79
2021/03/16 18:33:48;;;;;;;7.78;6.30;;;;;;;;;;4974825;28;20547;-80
2021/03/16 18:36:14;;;;;;;8.10;7.28;;;;;;;;;;4974330;28;20212;-79
2021/03/16 18:38:40;;;;;;;10.65;7.68;;;;;;;;;;4974859;28;20172;-79
2021/03/16 18:41:07;;;;;;;10.93;8.25;;;;;;;;;;4974650;28;20595;-79
2021/03/16 18:43:33;;;;;;;8.65;7.60;;;;;;;;;;4957532;28;20645;-79
2021/03/16 18:45:59;;;;;;;12.70;8.38;;;;;;;;;;4973993;28;20208;-78
2021/03/16 18:48:25;;;;;;;9.10;7.97;;;;;;;;;;4974522;28;20259;-79
2021/03/16 18:50:52;;;;;;;11.30;8.80;;;;;;;;;;4974689;28;20406;-79
2021/03/16 18:53:18;;;;;;;10.13;8.35;;;;;;;;;;4973287;28;20187;-79
2021/03/16 18:55:44;;;;;;;8.80;7.90;;;;;;;;;;4974199;28;20200;-79
2021/03/16 18:58:10;;;;;;;11.38;8.60;;;;;;;;;;4974408;28;20184;-79
2021/03/16 19:00:38;;;;;;;11.48;9.50;;;;;;;;;;4974535;28;20181;-79
2021/03/16 19:03:04;;;;;;;12.93;9.40;;;;;;;;;;4973343;28;20186;-79
2021/03/16 19:05:30;;;;;;;13.07;9.20;;;;;;;;;;4974117;28;20207;-79
2021/03/16 19:07:56;;;;;;;9.93;8.45;;;;;;;;;;4974554;28;20215;-79
2021/03/16 19:10:22;;;;;;;11.80;9.65;;;;;;;;;;4974234;28;20180;-79
2021/03/16 19:12:49;;;;;;;12.43;9.57;;;;;;;;;;4974297;28;20176;-79
2021/03/16 19:15:16;;;;;;;13.48;9.93;;;;;;;;;;4973956;28;20196;-79
2021/03/16 19:17:42;;;;;;;13.48;10.43;;;;;;;;;;4974301;28;20568;-80
2021/03/16 19:20:08;;;;;;;12.07;9.75;;;;;;;;;;4974133;28;20694;-78
2021/03/16 19:22:34;;;;;;;13.70;10.13;;;;;;;;;;4973783;28;20195;-79
2021/03/16 19:25:00;;;;;;;14.77;10.90;;;;;;;;;;4973732;28;20226;-79
2021/03/16 19:27:26;;;;;;;14.30;11.25;;;;;;;;;;4973937;28;20291;-78
2021/03/16 19:29:52;;;;;;;14.15;10.80;;;;;;;;;;4973702;28;20258;-78
2021/03/16 19:32:18;;;;;;;20.70;11.52;;;;;;;;;;4973867;28;20601;-79
2021/03/16 19:34:44;;;;;;;18.00;12.80;;;;;;;;;;4973325;28;20262;-79
2021/03/16 19:37:11;;;;;;;14.60;11.63;;;;;;;;;;4973917;28;20192;-78
2021/03/16 19:39:37;;;;;;;15.75;11.88;;;;;;;;;;4973956;28;20832;-79
2021/03/16 19:42:04;;;;;;;20.50;13.37;;;;;;;;;;4973894;28;20215;-78
2021/03/16 19:44:30;;;;;;;16.98;12.45;;;;;;;;;;4973629;28;20771;-78
2021/03/16 19:46:56;;;;;;;17.25;13.75;;;;;;;;;;4972437;28;20266;-79
2021/03/16 19:49:24;;;;;;;16.88;13.80;;;;;;;;;;4973823;28;20172;-79
2021/03/16 19:51:50;;;;;;;19.00;13.75;;;;;;;;;;4974157;28;20181;-78
2021/03/16 19:54:16;;;;;;;20.45;13.63;;;;;;;;;;4973690;28;20180;-78
2021/03/16 19:56:42;;;;;;;23.42;14.50;;;;;;;;;;4973212;28;20196;-79
2021/03/16 19:59:08;;;;;;;20.48;15.02;;;;;;;;;;4973900;28;20175;-77
2021/03/16 20:01:34;;;;;;;22.15;14.07;;;;;;;;;;4973798;28;20547;-78
2021/03/16 20:04:00;;;;;;;23.13;15.88;;;;;;;;;;4973923;28;20184;-79
2021/03/16 20:06:26;;;;;;;30.25;19.00;;;;;;;;;;4971841;28;20239;-78
2021/03/16 20:08:52;;;;;;;31.30;21.13;;;;;;;;;;4973561;28;20204;-79
2021/03/16 20:11:18;;;;;;;30.15;19.35;;;;;;;;;;4973623;28;20180;-77
2021/03/16 20:13:44;;;;;;;22.52;15.93;;;;;;;;;;4973814;28;20510;-78
2021/03/16 20:16:10;;;;;;;22.60;15.20;;;;;;;;;;4973278;28;20678;-79
2021/03/16 20:18:36;;;;;;;27.20;18.65;;;;;;;;;;4973546;28;20188;-79
2021/03/16 20:21:03;;;;;;;27.40;18.30;;;;;;;;;;4971327;28;20192;-78
2021/03/16 20:23:29;;;;;;;24.38;15.70;;;;;;;;;;4973464;28;20180;-78
2021/03/16 20:25:55;;;;;;;25.77;17.42;;;;;;;;;;4973224;28;20648;-77
2021/03/16 20:28:21;;;;;;;25.95;16.38;;;;;;;;;;4973278;28;20216;-78
2021/03/16 20:30:48;;;;;;;31.08;19.95;;;;;;;;;;4973213;28;20195;-77
2021/03/16 20:33:14;;;;;;;27.95;17.70;;;;;;;;;;4973449;28;20172;-77
2021/03/16 20:35:40;;;;;;;35.72;21.60;;;;;;;;;;4975253;28;20211;-76
2021/03/16 20:38:06;;;;;;;36.63;22.92;;;;;;;;;;4976978;28;20198;-76
2021/03/16 20:40:36;;;;;;;32.60;21.92;;;;;;;;;;4976680;28;20183;-77
2021/03/16 20:43:02;;;;;;;27.75;17.58;;;;;;;;;;4976786;28;20203;-78
2021/03/16 20:45:29;;;;;;;30.38;19.35;;;;;;;;;;4976296;28;20226;-77
2021/03/16 20:47:55;;;;;;;28.10;20.40;;;;;;;;;;4976774;28;20521;-76
2021/03/16 20:50:23;;;;;;;31.77;21.83;;;;;;;;;;4976847;28;20251;-76
2021/03/16 20:52:49;;;;;;;30.85;20.35;;;;;;;;;;4976802;28;20176;-78
2021/03/16 20:55:15;;;;;;;32.88;22.27;;;;;;;;;;4976145;28;20556;-76
2021/03/16 20:57:42;;;;;;;34.40;22.17;;;;;;;;;;4976574;28;20184;-78
2021/03/16 21:00:09;;;;;;;32.17;21.85;;;;;;;;;;4975556;28;20282;-77
2021/03/16 21:02:36;;;;;;;29.70;20.08;;;;;;;;;;4976721;28;20425;-78
2021/03/16 21:05:01;;;;;;;36.38;26.33;;;;;;;;;;4976511;28;20197;-78
2021/03/16 21:07:28;;;;;;;31.30;19.93;;;;;;;;;;4976432;28;20215;-77
2021/03/16 21:09:54;;;;;;;35.83;21.80;;;;;;;;;;4976274;28;20407;-79
2021/03/16 21:12:20;;;;;;;36.00;21.70;;;;;;;;;;4975258;28;20191;-78
2021/03/16 21:14:46;;;;;;;35.92;22.52;;;;;;;;;;4974606;28;20575;-75
2021/03/16 21:17:12;;;;;;;36.47;22.73;;;;;;;;;;4976223;28;20253;-76
2021/03/16 21:19:38;;;;;;;37.08;22.75;;;;;;;;;;4976172;28;20890;-75
2021/03/16 21:22:04;;;;;;;38.00;23.33;;;;;;;;;;4975970;28;20318;-76
2021/03/16 21:24:30;;;;;;;38.28;21.75;;;;;;;;;;4975843;28;20183;-79
2021/03/16 21:26:58;;;;;;;37.30;22.60;;;;;;;;;;4975849;28;20207;-78
2021/03/16 21:29:24;;;;;;;40.72;24.83;;;;;;;;;;4976189;28;20228;-76
2021/03/16 21:31:51;;;;;;;37.85;23.27;;;;;;;;;;4976258;28;20180;-78
2021/03/16 21:34:17;;;;;;;41.13;24.80;;;;;;;;;;4976039;28;20181;-78
2021/03/16 21:36:43;;;;;;;46.38;25.27;;;;;;;;;;4975492;28;20294;-78
2021/03/16 21:39:09;;;;;;;45.67;24.35;;;;;;;;;;4975883;28;20271;-76
2021/03/16 21:41:35;;;;;;;41.53;23.95;;;;;;;;;;4975793;28;20251;-79
2021/03/16 21:44:01;;;;;;;43.97;23.95;;;;;;;;;;4975605;28;20240;-78
2021/03/16 21:46:27;;;;;;;43.50;25.40;;;;;;;;;;4975301;28;20227;-77
2021/03/16 21:48:53;;;;;;;40.67;25.13;;;;;;;;;;4975686;28;20203;-76
2021/03/16 21:51:19;;;;;;;49.25;25.00;;;;;;;;;;4975467;28;20176;-78
2021/03/16 21:53:46;;;;;;;42.15;24.33;;;;;;;;;;4975634;28;20632;-78
2021/03/16 21:56:12;;;;;;;39.83;22.25;;;;;;;;;;4975180;28;20188;-78
2021/03/16 21:58:38;;;;;;;45.65;25.00;;;;;;;;;;4975469;28;20204;-78
2021/03/16 22:01:05;;;;;;;48.70;25.30;;;;;;;;;;4975113;28;20216;-78
2021/03/16 22:03:31;;;;;;;37.53;21.67;;;;;;;;;;4975413;28;20953;-78
2021/03/16 22:05:57;;;;;;;38.75;20.88;;;;;;;;;;4973680;28;20262;-77